Time;durP1;ratioP1;P1;durP2;ratioP2;P2;SDS_P1;SDS_P2;PMS_P1;PMS_P2;Temp;Humidity;BMP_temperature;BMP_pressure;BME280_temperature;BME280_humidity;BME280_pressure;Samples;Min_cycle;Max_cycle;Signal;HPM_P1;HPM_P2
2023/05/25 00:02:24;;;;;;;2.20;0.77;;;14.60;99.90;;;;;;5089748;28;20490;-45
2023/05/25 00:04:51;;;;;;;3.83;1.47;;;13.50;99.90;;;;;;5090933;28;20511;-44
2023/05/25 00:07:18;;;;;;;2.50;1.27;;;13.30;99.90;;;;;;5090617;28;20534;-45
2023/05/25 00:09:45;;;;;;;2.50;1.37;;;13.70;99.90;;;;;;5091166;28;20447;-45
2023/05/25 00:12:13;;;;;;;3.50;1.47;;;14.10;99.90;;;;;;5090269;28;20495;-45
2023/05/25 00:14:41;;;;;;;2.57;1.10;;;14.40;99.90;;;;;;5090778;28;20529;-45
2023/05/25 00:17:09;;;;;;;2.63;1.17;;;14.50;99.90;;;;;;5090312;28;20486;-45
2023/05/25 00:19:36;;;;;;;2.20;1.13;;;14.60;99.90;;;;;;5090319;28;20448;-45
2023/05/25 00:22:03;;;;;;;2.30;1.10;;;14.60;99.90;;;;;;5088667;28;20499;-44
2023/05/25 00:24:31;;;;;;;2.60;1.20;;;14.60;99.90;;;;;;5089172;28;20828;-44
2023/05/25 00:26:58;;;;;;;2.43;1.00;;;14.60;99.90;;;;;;5087144;28;20536;-45
2023/05/25 00:29:25;;;;;;;2.30;1.20;;;14.70;99.90;;;;;;5089464;28;20872;-45
2023/05/25 00:31:54;;;;;;;2.20;0.90;;;14.90;99.90;;;;;;5088598;28;20467;-45
2023/05/25 00:34:20;;;;;;;2.63;1.27;;;15.00;99.90;;;;;;5089148;28;20534;-45
2023/05/25 00:36:48;;;;;;;5.80;1.30;;;15.00;99.90;;;;;;5090255;28;20898;-45
2023/05/25 00:39:15;;;;;;;3.30;1.60;;;14.90;99.90;;;;;;5089688;28;20478;-45
2023/05/25 00:41:44;;;;;;;2.33;1.07;;;14.80;99.90;;;;;;5088560;28;20438;-45
2023/05/25 00:44:13;;;;;;;2.20;1.30;;;14.90;99.90;;;;;;5088882;28;20471;-45
2023/05/25 00:46:47;;;;;;;2.47;1.33;;;15.00;99.90;;;;;;5088734;28;20496;-45
2023/05/25 00:49:16;;;;;;;2.27;1.07;;;15.10;99.90;;;;;;5089473;28;20526;-45
2023/05/25 00:51:45;;;;;;;2.00;0.90;;;15.00;99.90;;;;;;5088608;28;20539;-44
2023/05/25 00:54:14;;;;;;;2.60;1.10;;;15.00;99.90;;;;;;5089571;28;20504;-45
2023/05/25 00:56:44;;;;;;;3.73;1.37;;;15.00;99.90;;;;;;5090084;28;20442;-45
2023/05/25 00:59:15;;;;;;;2.20;1.10;;;15.10;99.90;;;;;;5088816;28;20479;-45
2023/05/25 01:01:43;;;;;;;2.43;1.13;;;15.00;99.90;;;;;;5089834;28;20443;-45
2023/05/25 01:04:13;;;;;;;3.70;1.53;;;15.00;99.90;;;;;;5092950;28;20534;-45
2023/05/25 01:06:46;;;;;;;2.03;0.93;;;14.90;99.90;;;;;;5092419;28;20450;-45
2023/05/25 01:09:17;;;;;;;2.43;0.90;;;14.90;99.90;;;;;;5092397;28;20934;-45
2023/05/25 01:11:48;;;;;;;2.20;1.00;;;14.80;99.90;;;;;;5092064;28;20878;-45
2023/05/25 01:14:19;;;;;;;2.23;1.10;;;14.90;99.90;;;;;;5092257;28;20999;-45
2023/05/25 01:16:46;;;;;;;2.27;0.90;;;14.90;99.90;;;;;;5092061;28;20450;-44
2023/05/25 01:19:14;;;;;;;4.13;1.00;;;15.00;99.90;;;;;;5093155;28;20970;-45
2023/05/25 01:21:48;;;;;;;1.80;0.80;;;15.00;99.90;;;;;;5093319;28;20527;-45
2023/05/25 01:24:21;;;;;;;3.07;1.43;;;15.10;99.90;;;;;;5093487;28;20913;-45
2023/05/25 01:26:53;;;;;;;2.53;1.23;;;15.00;99.90;;;;;;5091602;28;20578;-45
2023/05/25 01:29:23;;;;;;;3.70;1.20;;;15.00;99.90;;;;;;5093607;28;20523;-45
2023/05/25 01:31:52;;;;;;;2.27;1.00;;;14.80;99.90;;;;;;5092681;28;21013;-45
2023/05/25 01:34:20;;;;;;;1.90;0.90;;;14.80;99.90;;;;;;5093039;28;20471;-45
2023/05/25 01:36:49;;;;;;;1.90;1.00;;;14.80;99.90;;;;;;5092731;28;20550;-45
2023/05/25 01:39:17;;;;;;;2.20;1.17;;;14.90;99.90;;;;;;5093238;28;20962;-45
2023/05/25 01:41:44;;;;;;;1.90;1.00;;;14.80;99.90;;;;;;5093043;28;20450;-45
2023/05/25 01:44:11;;;;;;;1.90;0.87;;;14.80;99.90;;;;;;5093302;28;20929;-45
2023/05/25 01:46:39;;;;;;;2.43;0.90;;;14.70;99.90;;;;;;5093006;28;20440;-45
2023/05/25 01:49:16;;;;;;;2.57;0.77;;;14.70;99.90;;;;;;5093470;28;20565;-45
2023/05/25 01:51:54;;;;;;;2.33;1.13;;;14.80;99.90;;;;;;5092395;28;20811;-45
2023/05/25 01:54:26;;;;;;;2.37;1.00;;;14.80;99.90;;;;;;5093222;28;20486;-45
2023/05/25 01:56:58;;;;;;;2.20;1.00;;;14.80;99.90;;;;;;5092261;28;20533;-45
2023/05/25 01:59:26;;;;;;;3.40;1.07;;;14.80;99.90;;;;;;5091027;28;20479;-45
2023/05/25 02:01:54;;;;;;;2.87;0.93;;;14.80;99.90;;;;;;5090406;28;20559;-45
2023/05/25 02:04:22;;;;;;;2.60;1.10;;;14.80;99.90;;;;;;5091546;28;20483;-44
2023/05/25 02:06:49;;;;;;;2.67;1.00;;;14.90;99.90;;;;;;5090873;28;20450;-45
2023/05/25 02:09:17;;;;;;;3.40;1.00;;;14.60;99.90;;;;;;5091385;28;20475;-45
2023/05/25 02:11:44;;;;;;;2.40;1.10;;;14.30;99.90;;;;;;5090641;28;20478;-45
2023/05/25 02:14:11;;;;;;;2.60;1.60;;;14.20;99.90;;;;;;5089960;28;20432;-45
2023/05/25 02:16:38;;;;;;;3.40;1.20;;;14.20;99.90;;;;;;5090743;28;20526;-45
2023/05/25 02:19:05;;;;;;;2.43;1.40;;;14.20;99.90;;;;;;5092639;28;20537;-45
2023/05/25 02:21:31;;;;;;;5.40;1.20;;;14.40;99.90;;;;;;5091966;28;20980;-45
2023/05/25 02:23:58;;;;;;;2.10;0.80;;;14.40;99.90;;;;;;5091260;28;20576;-45
2023/05/25 02:26:27;;;;;;;2.53;1.20;;;14.50;99.90;;;;;;5088860;28;20798;-45
2023/05/25 02:28:54;;;;;;;1.97;1.00;;;14.50;99.90;;;;;;5090446;28;21030;-45
2023/05/25 02:31:20;;;;;;;2.20;0.87;;;14.50;99.90;;;;;;5090574;28;20523;-44
2023/05/25 02:33:47;;;;;;;2.27;0.97;;;14.40;99.90;;;;;;5090648;28;20554;-45
2023/05/25 02:36:15;;;;;;;3.20;1.20;;;14.50;99.90;;;;;;5090236;28;20443;-45
2023/05/25 02:38:42;;;;;;;2.00;1.07;;;14.60;99.90;;;;;;5091603;28;20543;-45
2023/05/25 02:41:08;;;;;;;2.40;1.37;;;14.60;99.90;;;;;;5092211;28;20440;-45
2023/05/25 02:43:38;;;;;;;2.63;1.20;;;14.70;99.90;;;;;;5090974;28;20539;-45
2023/05/25 02:46:05;;;;;;;2.20;0.97;;;14.80;99.90;;;;;;5091786;28;20444;-45
2023/05/25 02:48:31;;;;;;;3.00;1.07;;;14.80;99.90;;;;;;5092116;28;20536;-45
2023/05/25 02:50:58;;;;;;;1.90;1.00;;;14.70;99.90;;;;;;5091564;28;20978;-44
2023/05/25 02:53:25;;;;;;;2.00;1.20;;;14.80;99.90;;;;;;5091516;28;20468;-44
2023/05/25 02:55:52;;;;;;;2.03;0.97;;;14.70;99.90;;;;;;5091394;28;20479;-45
2023/05/25 02:58:19;;;;;;;2.20;0.97;;;14.80;99.90;;;;;;5089666;28;20479;-45
2023/05/25 03:00:48;;;;;;;2.20;1.40;;;14.70;99.90;;;;;;5091290;28;20452;-45
2023/05/25 03:03:15;;;;;;;2.00;1.00;;;14.80;99.90;;;;;;5091423;28;20542;-45
2023/05/25 03:05:42;;;;;;;2.10;1.00;;;14.80;99.90;;;;;;5090226;28;20577;-44
2023/05/25 03:08:09;;;;;;;2.07;0.97;;;14.70;99.90;;;;;;5090182;28;20478;-45
2023/05/25 03:10:35;;;;;;;2.30;1.40;;;14.60;99.90;;;;;;5089969;28;20486;-45
2023/05/25 03:13:02;;;;;;;2.17;1.07;;;14.60;99.90;;;;;;5089801;28;20559;-45
2023/05/25 03:15:29;;;;;;;2.83;1.33;;;14.60;99.90;;;;;;5089857;28;20472;-45
2023/05/25 03:18:00;;;;;;;2.10;1.27;;;14.60;99.90;;;;;;5090548;28;20450;-45
2023/05/25 03:20:27;;;;;;;2.60;1.00;;;14.70;99.90;;;;;;5091269;28;20447;-45
2023/05/25 03:22:55;;;;;;;1.80;0.87;;;14.70;99.90;;;;;;5090889;28;21271;-44
2023/05/25 03:25:22;;;;;;;2.63;1.10;;;14.70;99.90;;;;;;5090378;28;20570;-44
2023/05/25 03:27:51;;;;;;;2.67;1.73;;;14.70;99.90;;;;;;5089139;28;20444;-45
2023/05/25 03:30:18;;;;;;;2.47;1.00;;;14.70;99.90;;;;;;5089961;28;21072;-45
2023/05/25 03:32:45;;;;;;;3.70;2.60;;;14.70;99.90;;;;;;5087435;28;20524;-45
2023/05/25 03:35:14;;;;;;;2.27;1.17;;;14.60;99.90;;;;;;5089081;28;20474;-45
2023/05/25 03:37:40;;;;;;;3.57;1.20;;;14.60;99.90;;;;;;5089282;28;20444;-45
2023/05/25 03:40:10;;;;;;;2.10;1.17;;;14.60;99.90;;;;;;5089369;28;21013;-45
2023/05/25 03:42:38;;;;;;;1.90;0.87;;;14.60;99.90;;;;;;5089286;28;20471;-45
2023/05/25 03:45:07;;;;;;;3.07;1.10;;;14.70;99.90;;;;;;5089616;28;20479;-45
2023/05/25 03:47:34;;;;;;;2.43;1.20;;;14.60;99.90;;;;;;5090651;28;20444;-45
2023/05/25 03:50:01;;;;;;;2.27;1.17;;;14.60;99.90;;;;;;5091218;28;20868;-45
2023/05/25 03:52:30;;;;;;;2.70;1.57;;;14.20;99.90;;;;;;5090478;28;20546;-45
2023/05/25 03:54:56;;;;;;;3.13;1.40;;;13.50;99.90;;;;;;5090923;28;20519;-45
2023/05/25 03:57:23;;;;;;;3.13;1.27;;;13.40;99.90;;;;;;5090762;28;20479;-45
2023/05/25 03:59:50;;;;;;;2.80;1.20;;;13.60;99.90;;;;;;5089137;28;20523;-45
2023/05/25 04:02:17;;;;;;;2.87;1.40;;;13.80;99.90;;;;;;5090400;28;20547;-45
2023/05/25 04:04:44;;;;;;;3.07;1.70;;;14.00;99.90;;;;;;5091035;28;20558;-45
2023/05/25 04:07:11;;;;;;;3.47;1.90;;;14.10;99.90;;;;;;5090654;28;20598;-45
2023/05/25 04:09:39;;;;;;;3.13;2.07;;;14.10;99.90;;;;;;5090539;28;20440;-45
2023/05/25 04:12:06;;;;;;;3.17;1.80;;;14.20;99.90;;;;;;5090037;28;20539;-45
2023/05/25 04:14:33;;;;;;;2.90;1.60;;;14.30;99.90;;;;;;5090779;28;20539;-45
2023/05/25 04:17:00;;;;;;;3.50;1.60;;;14.40;99.90;;;;;;5089704;28;20479;-45
2023/05/25 04:19:27;;;;;;;3.33;1.47;;;14.30;99.90;;;;;;5091116;28;20443;-45
2023/05/25 04:21:54;;;;;;;2.97;1.57;;;14.40;99.90;;;;;;5090112;28;20506;-45
2023/05/25 04:24:22;;;;;;;2.70;1.50;;;14.30;99.90;;;;;;5090615;28;20511;-45
2023/05/25 04:26:50;;;;;;;2.50;1.40;;;14.40;99.90;;;;;;5087234;28;20468;-45
2023/05/25 04:29:17;;;;;;;2.40;1.37;;;14.40;99.90;;;;;;5089339;28;20475;-45
2023/05/25 04:31:45;;;;;;;4.23;1.70;;;14.50;99.90;;;;;;5087572;28;20443;-45
2023/05/25 04:34:13;;;;;;;2.20;1.20;;;14.50;99.90;;;;;;5089199;28;20500;-45
2023/05/25 04:36:41;;;;;;;2.53;1.50;;;14.40;99.90;;;;;;5088909;28;20443;-45
2023/05/25 04:39:08;;;;;;;2.40;1.60;;;14.50;99.90;;;;;;5092997;28;20546;-45
2023/05/25 04:41:36;;;;;;;3.33;1.57;;;14.50;99.90;;;;;;5092437;28;20474;-44
2023/05/25 04:44:04;;;;;;;3.27;1.67;;;14.60;99.90;;;;;;5093889;28;20433;-45
2023/05/25 04:46:35;;;;;;;2.83;2.13;;;14.60;99.90;;;;;;5093932;28;20507;-45
2023/05/25 04:49:03;;;;;;;3.40;2.00;;;14.50;99.90;;;;;;5094431;28;20450;-45
2023/05/25 04:51:31;;;;;;;3.27;1.63;;;14.50;99.90;;;;;;5093042;28;20930;-45
2023/05/25 04:53:58;;;;;;;3.30;1.70;;;14.50;99.90;;;;;;5093866;28;20837;-45
2023/05/25 04:56:25;;;;;;;2.93;1.67;;;14.50;99.90;;;;;;5093465;28;20432;-45
2023/05/25 04:58:52;;;;;;;2.60;1.60;;;14.50;99.90;;;;;;5092000;28;20442;-45
2023/05/25 05:01:21;;;;;;;3.77;1.67;;;14.60;99.90;;;;;;5093508;28;20530;-44
2023/05/25 05:03:47;;;;;;;3.33;1.70;;;14.50;99.90;;;;;;5093483;28;20887;-44
2023/05/25 05:06:15;;;;;;;4.00;1.67;;;14.50;99.90;;;;;;5093296;28;20562;-45
2023/05/25 05:08:42;;;;;;;2.17;1.47;;;14.50;99.90;;;;;;5093476;28;20463;-45
2023/05/25 05:11:09;;;;;;;2.67;1.43;;;14.60;99.90;;;;;;5094391;28;20816;-45
2023/05/25 05:13:36;;;;;;;3.80;1.50;;;14.80;99.90;;;;;;5092962;28;20900;-45
2023/05/25 05:16:03;;;;;;;2.80;1.60;;;14.90;99.90;;;;;;5093586;28;20515;-45
2023/05/25 05:18:31;;;;;;;2.10;1.13;;;14.80;99.90;;;;;;5093496;28;20484;-45
2023/05/25 05:20:58;;;;;;;2.90;1.53;;;14.70;99.90;;;;;;5093753;28;20476;-45
2023/05/25 05:23:25;;;;;;;2.63;1.60;;;14.30;99.90;;;;;;5093450;28;20459;-45
2023/05/25 05:25:52;;;;;;;3.60;1.60;;;14.00;99.90;;;;;;5091144;28;20497;-45
2023/05/25 05:28:19;;;;;;;2.20;1.20;;;14.00;99.90;;;;;;5085891;28;20440;-45
2023/05/25 05:30:46;;;;;;;3.67;2.17;;;14.10;99.90;;;;;;5090352;28;20937;-45
2023/05/25 05:33:13;;;;;;;2.60;1.87;;;14.30;99.90;;;;;;5092771;28;20468;-45
2023/05/25 05:35:41;;;;;;;2.30;1.50;;;14.40;99.90;;;;;;5092850;28;20523;-46
2023/05/25 05:38:08;;;;;;;3.40;1.70;;;14.40;99.90;;;;;;5087118;28;20543;-47
2023/05/25 05:40:35;;;;;;;2.30;1.47;;;14.50;99.90;;;;;;5087853;28;20536;-45
2023/05/25 05:43:02;;;;;;;4.73;1.70;;;14.60;99.90;;;;;;5084346;28;20543;-47
2023/05/25 05:45:29;;;;;;;3.37;2.20;;;14.60;99.90;;;;;;5087344;28;20503;-46
2023/05/25 05:47:56;;;;;;;2.50;1.60;;;14.50;99.90;;;;;;5090363;28;20446;-46
2023/05/25 05:50:23;;;;;;;2.60;1.70;;;14.50;99.90;;;;;;5089066;28;21017;-46
2023/05/25 05:52:52;;;;;;;6.20;1.70;;;14.60;99.90;;;;;;5089258;28;20806;-46
2023/05/25 05:55:20;;;;;;;2.17;1.20;;;14.60;99.90;;;;;;5090615;28;20444;-46
2023/05/25 05:57:47;;;;;;;2.80;1.70;;;14.70;99.90;;;;;;5089353;28;20443;-46
2023/05/25 06:00:15;;;;;;;3.03;1.37;;;14.70;99.90;;;;;;5091238;28;20472;-46
2023/05/25 06:02:43;;;;;;;3.30;2.10;;;14.80;99.90;;;;;;5089274;28;20969;-44
2023/05/25 06:05:10;;;;;;;3.37;2.13;;;14.90;99.90;;;;;;5092272;28;21008;-45
2023/05/25 06:07:37;;;;;;;2.90;1.73;;;15.00;99.90;;;;;;5092070;28;20479;-45
2023/05/25 06:10:06;;;;;;;2.67;1.30;;;15.10;99.90;;;;;;5092572;28;20500;-45
2023/05/25 06:12:33;;;;;;;2.10;1.10;;;15.40;99.90;;;;;;5092142;28;20539;-47
2023/05/25 06:15:00;;;;;;;3.20;1.70;;;14.60;99.90;;;;;;5092307;28;20435;-48
2023/05/25 06:17:28;;;;;;;2.17;1.20;;;14.20;99.90;;;;;;5092015;28;20436;-46
2023/05/25 06:19:55;;;;;;;2.30;1.10;;;13.90;99.90;;;;;;5090666;28;20452;-45
2023/05/25 06:22:26;;;;;;;2.20;0.90;;;13.60;99.90;;;;;;5084388;28;20577;-45
2023/05/25 06:24:53;;;;;;;1.80;0.80;;;13.40;99.90;;;;;;5091648;28;21134;-45
2023/05/25 06:27:22;;;;;;;1.87;0.93;;;12.90;99.90;;;;;;5091326;28;20533;-45
2023/05/25 06:29:49;;;;;;;2.67;0.73;;;12.80;99.90;;;;;;5092272;28;20946;-45
2023/05/25 06:32:16;;;;;;;2.87;0.90;;;12.80;99.90;;;;;;5091681;28;20467;-45
2023/05/25 06:34:43;;;;;;;1.90;0.87;;;13.00;99.90;;;;;;5092202;28;20512;-44
2023/05/25 06:37:10;;;;;;;2.20;0.90;;;13.30;99.90;;;;;;5090511;28;20526;-46
2023/05/25 06:39:38;;;;;;;3.30;1.23;;;13.40;99.90;;;;;;5086102;28;20468;-44
2023/05/25 06:42:06;;;;;;;1.90;0.77;;;13.30;99.90;;;;;;5089282;28;20669;-46
2023/05/25 06:44:34;;;;;;;1.90;0.80;;;13.20;99.90;;;;;;5090186;28;20976;-46
2023/05/25 06:47:01;;;;;;;2.53;1.07;;;13.10;99.90;;;;;;5089943;28;20490;-46
2023/05/25 06:49:28;;;;;;;3.47;0.60;;;13.20;99.90;;;;;;5092106;28;20440;-45
2023/05/25 06:51:55;;;;;;;2.10;0.87;;;13.30;99.90;;;;;;5091376;28;21016;-46
2023/05/25 06:54:22;;;;;;;1.90;0.90;;;13.30;99.90;;;;;;5091892;28;20447;-45
2023/05/25 06:56:49;;;;;;;3.90;0.93;;;13.20;99.90;;;;;;5091566;28;20817;-45
2023/05/25 06:59:17;;;;;;;1.93;0.67;;;13.10;99.90;;;;;;5089782;28;20969;-45
2023/05/25 07:01:46;;;;;;;1.90;0.80;;;13.10;99.90;;;;;;5088844;28;20500;-46
2023/05/25 07:04:13;;;;;;;2.00;0.70;;;13.20;99.90;;;;;;5090193;28;20490;-45
2023/05/25 07:06:40;;;;;;;1.70;0.70;;;13.30;99.90;;;;;;5089852;28;20611;-46
2023/05/25 07:09:07;;;;;;;1.97;0.70;;;13.60;99.90;;;;;;5090903;28;20435;-46
2023/05/25 07:11:33;;;;;;;1.83;0.77;;;13.80;99.90;;;;;;5090687;28;20475;-44
2023/05/25 07:14:00;;;;;;;1.80;0.87;;;14.00;99.90;;;;;;5091228;28;20531;-46
2023/05/25 07:16:27;;;;;;;1.90;0.70;;;14.10;99.90;;;;;;5091150;28;20475;-46
2023/05/25 07:18:55;;;;;;;1.70;0.70;;;14.20;99.90;;;;;;5089888;28;20507;-47
2023/05/25 07:21:22;;;;;;;1.93;0.80;;;14.40;99.90;;;;;;5091149;28;20483;-46
2023/05/25 07:23:49;;;;;;;1.97;0.70;;;14.40;99.90;;;;;;5091467;28;20542;-46
2023/05/25 07:26:16;;;;;;;1.90;0.80;;;14.30;99.90;;;;;;5091197;28;20578;-46
2023/05/25 07:28:43;;;;;;;2.17;0.83;;;14.40;99.90;;;;;;5091350;28;20471;-46
2023/05/25 07:31:11;;;;;;;3.50;0.80;;;14.60;99.90;;;;;;5091604;28;20482;-46
2023/05/25 07:33:38;;;;;;;2.13;0.80;;;14.60;99.90;;;;;;5090834;28;20472;-46
2023/05/25 07:36:07;;;;;;;1.80;0.73;;;14.20;99.90;;;;;;5089958;28;20527;-43
2023/05/25 07:38:34;;;;;;;2.10;0.60;;;14.30;99.90;;;;;;5083526;28;20469;-43
2023/05/25 07:41:01;;;;;;;1.77;0.70;;;14.20;99.90;;;;;;5090418;28;20462;-45
2023/05/25 07:43:27;;;;;;;1.87;0.60;;;14.30;99.90;;;;;;5088988;28;20830;-45
2023/05/25 07:45:54;;;;;;;2.30;0.80;;;14.40;99.90;;;;;;5085078;28;20567;-45
2023/05/25 07:48:21;;;;;;;1.90;0.80;;;14.50;99.90;;;;;;5082479;28;20471;-46
2023/05/25 07:50:48;;;;;;;1.70;0.70;;;14.70;99.90;;;;;;5090705;28;20938;-46
2023/05/25 07:53:16;;;;;;;2.13;0.83;;;14.70;99.90;;;;;;5090349;28;20555;-45
2023/05/25 07:55:43;;;;;;;1.73;0.73;;;14.80;99.90;;;;;;5090755;28;20528;-45
2023/05/25 07:58:10;;;;;;;1.83;0.60;;;14.60;99.90;;;;;;5088784;28;20472;-45
2023/05/25 08:00:37;;;;;;;1.80;0.80;;;14.80;99.90;;;;;;5090052;28;20482;-45
2023/05/25 08:03:04;;;;;;;1.93;0.93;;;14.90;99.90;;;;;;5088136;28;20492;-46
2023/05/25 08:05:31;;;;;;;2.33;1.20;;;15.00;99.90;;;;;;5090317;28;20464;-45
2023/05/25 08:07:58;;;;;;;1.90;1.00;;;15.20;99.90;;;;;;5089640;28;20526;-45
2023/05/25 08:10:30;;;;;;;2.33;0.90;;;15.30;99.90;;;;;;5089610;28;20539;-46
2023/05/25 08:12:57;;;;;;;2.17;1.10;;;15.30;99.90;;;;;;5091972;28;20474;-45
2023/05/25 08:15:25;;;;;;;1.90;1.00;;;15.30;99.90;;;;;;5094493;28;20439;-45
2023/05/25 08:17:52;;;;;;;3.43;1.20;;;15.50;99.90;;;;;;5094527;28;20471;-45
2023/05/25 08:20:19;;;;;;;1.90;0.90;;;15.80;99.90;;;;;;5094934;28;20447;-45
2023/05/25 08:22:46;;;;;;;2.20;1.00;;;15.80;99.90;;;;;;5094408;28;20520;-45
2023/05/25 08:25:15;;;;;;;2.20;1.07;;;16.00;99.90;;;;;;5094751;28;20479;-46
2023/05/25 08:27:43;;;;;;;2.30;1.10;;;15.90;99.90;;;;;;5094612;28;20568;-45
2023/05/25 08:30:11;;;;;;;2.70;0.90;;;16.10;99.90;;;;;;5094757;28;20435;-45
2023/05/25 08:32:38;;;;;;;3.03;1.30;;;16.10;99.90;;;;;;5094111;28;20555;-45
2023/05/25 08:35:05;;;;;;;2.90;1.13;;;16.20;99.90;;;;;;5094677;28;20527;-45
2023/05/25 08:37:33;;;;;;;3.00;1.20;;;16.10;99.90;;;;;;5093881;28;20466;-43
2023/05/25 08:40:01;;;;;;;2.50;1.30;;;16.20;99.90;;;;;;5093324;28;20531;-45
2023/05/25 08:42:28;;;;;;;2.00;1.00;;;16.20;99.90;;;;;;5090886;28;21007;-45
2023/05/25 08:44:57;;;;;;;2.30;1.40;;;16.40;99.90;;;;;;5093533;28;20524;-45
2023/05/25 08:47:24;;;;;;;2.40;1.20;;;16.70;99.90;;;;;;5093813;28;20564;-45
2023/05/25 08:49:53;;;;;;;2.07;1.10;;;16.70;99.90;;;;;;5094170;28;21007;-45
2023/05/25 08:52:23;;;;;;;2.27;1.30;;;16.50;99.90;;;;;;5093694;28;20538;-45
2023/05/25 08:54:53;;;;;;;2.10;1.10;;;16.60;99.90;;;;;;5094373;28;20874;-45
2023/05/25 08:57:36;;;;;;;4.53;1.13;;;16.60;99.90;;;;;;5094235;28;20519;-45
2023/05/25 09:00:09;;;;;;;3.00;1.10;;;16.60;99.90;;;;;;5092389;28;20571;-45
2023/05/25 09:02:41;;;;;;;2.70;1.30;;;16.70;99.90;;;;;;5091476;28;20506;-45
2023/05/25 09:05:09;;;;;;;2.77;1.50;;;16.70;99.90;;;;;;5093608;28;20542;-45
2023/05/25 09:07:36;;;;;;;4.23;1.73;;;17.00;99.90;;;;;;5093229;28;20508;-45
2023/05/25 09:10:03;;;;;;;2.93;1.40;;;17.30;99.90;;;;;;5093797;28;20527;-45
2023/05/25 09:12:31;;;;;;;2.20;1.10;;;17.50;99.90;;;;;;5093243;28;21043;-47
2023/05/25 09:14:58;;;;;;;2.83;1.17;;;17.60;99.90;;;;;;5093639;28;20540;-45
2023/05/25 09:17:27;;;;;;;2.10;1.07;;;17.80;99.90;;;;;;5093493;28;20492;-45
2023/05/25 09:19:54;;;;;;;2.63;1.07;;;17.60;99.90;;;;;;5093714;28;20448;-45
2023/05/25 09:22:21;;;;;;;3.30;1.30;;;17.50;99.90;;;;;;5091386;28;20612;-45
2023/05/25 09:24:48;;;;;;;4.50;1.30;;;17.40;99.90;;;;;;5093672;28;20513;-45
2023/05/25 09:27:18;;;;;;;2.30;1.20;;;17.40;99.90;;;;;;5092482;28;20476;-45
2023/05/25 09:29:46;;;;;;;2.70;1.30;;;17.40;99.90;;;;;;5093262;28;20449;-45
2023/05/25 09:32:13;;;;;;;2.40;1.20;;;17.40;99.90;;;;;;5092553;28;20564;-45
2023/05/25 09:34:43;;;;;;;2.90;1.57;;;17.40;99.90;;;;;;5093044;28;20464;-46
2023/05/25 09:37:12;;;;;;;2.90;1.00;;;17.80;99.90;;;;;;5092463;28;20931;-45
2023/05/25 09:39:40;;;;;;;3.20;1.30;;;17.90;99.90;;;;;;5093018;28;20445;-45
2023/05/25 09:42:07;;;;;;;2.07;1.10;;;18.00;99.90;;;;;;5092303;28;20543;-47
2023/05/25 09:44:34;;;;;;;3.43;1.30;;;18.30;99.90;;;;;;5088949;28;20473;-46
2023/05/25 09:47:02;;;;;;;2.40;1.40;;;18.40;99.90;;;;;;5088530;28;20514;-46
2023/05/25 09:49:29;;;;;;;2.00;1.00;;;18.50;99.90;;;;;;5085105;28;20526;-45
2023/05/25 09:51:57;;;;;;;2.80;1.50;;;18.60;99.90;;;;;;5092582;28;20545;-45
2023/05/25 09:54:26;;;;;;;2.57;1.27;;;18.60;99.90;;;;;;5093107;28;20531;-45
2023/05/25 09:56:53;;;;;;;3.37;1.50;;;18.50;99.90;;;;;;5090628;28;20941;-45
2023/05/25 09:59:21;;;;;;;2.67;1.20;;;18.30;99.90;;;;;;5091167;28;20538;-47
2023/05/25 10:01:51;;;;;;;2.73;1.60;;;18.30;99.90;;;;;;5092249;28;20563;-46
2023/05/25 10:04:18;;;;;;;3.30;1.50;;;18.40;99.90;;;;;;5092352;28;20479;-45
2023/05/25 10:06:49;;;;;;;2.70;1.50;;;18.60;99.90;;;;;;5091367;28;20566;-46
2023/05/25 10:09:18;;;;;;;5.13;1.40;;;18.60;99.90;;;;;;5090900;28;20815;-45
2023/05/25 10:11:46;;;;;;;2.70;1.83;;;18.60;99.90;;;;;;5091087;28;21065;-45
2023/05/25 10:14:19;;;;;;;2.73;1.87;;;18.50;99.90;;;;;;5092010;28;20989;-45
2023/05/25 10:16:50;;;;;;;2.50;1.30;;;18.60;99.90;;;;;;5092214;28;20449;-45
2023/05/25 10:19:22;;;;;;;2.33;1.33;;;18.70;99.90;;;;;;5092816;28;20451;-46
2023/05/25 10:21:58;;;;;;;2.67;1.10;;;18.80;99.90;;;;;;5091973;28;20506;-45
2023/05/25 10:24:34;;;;;;;4.30;1.60;;;19.00;99.90;;;;;;5092582;28;20529;-46
2023/05/25 10:27:03;;;;;;;2.63;1.40;;;18.90;99.90;;;;;;5091837;28;20482;-45
2023/05/25 10:29:31;;;;;;;2.60;1.20;;;18.90;99.90;;;;;;5071849;28;20472;-45
2023/05/25 10:31:59;;;;;;;3.90;2.53;;;19.00;99.90;;;;;;5071651;28;20550;-45
2023/05/25 10:34:27;;;;;;;2.70;1.30;;;19.00;99.90;;;;;;5090717;28;20496;-46
2023/05/25 10:36:55;;;;;;;2.27;1.10;;;19.10;99.90;;;;;;5091308;28;20429;-46
2023/05/25 10:39:23;;;;;;;3.10;1.70;;;19.00;99.90;;;;;;5091689;28;20524;-45
2023/05/25 10:41:52;;;;;;;2.63;1.30;;;19.10;99.90;;;;;;5091416;28;20453;-45
2023/05/25 10:44:20;;;;;;;2.33;1.33;;;19.00;99.90;;;;;;5091771;28;20437;-45
2023/05/25 10:46:48;;;;;;;3.50;1.50;;;19.10;99.90;;;;;;5091419;28;20509;-45
2023/05/25 10:49:26;;;;;;;2.60;1.40;;;19.00;99.90;;;;;;5091442;28;20471;-45
2023/05/25 10:51:58;;;;;;;3.27;1.80;;;19.20;99.90;;;;;;5089836;28;20468;-43
2023/05/25 10:54:29;;;;;;;2.73;1.43;;;19.30;99.90;;;;;;5090097;28;20631;-46
2023/05/25 10:57:17;;;;;;;2.50;1.53;;;19.40;99.90;;;;;;5087999;28;20826;-46
2023/05/25 10:59:49;;;;;;;3.10;1.63;;;19.50;99.90;;;;;;5088647;28;20492;-45
2023/05/25 11:02:16;;;;;;;3.77;1.97;;;19.60;99.90;;;;;;5090023;28;20469;-45
2023/05/25 11:04:46;;;;;;;3.20;1.60;;;19.60;99.90;;;;;;5091789;28;20471;-46
2023/05/25 11:07:15;;;;;;;3.10;1.83;;;19.60;99.90;;;;;;5091369;28;20508;-46
2023/05/25 11:09:44;;;;;;;3.67;1.80;;;19.60;99.90;;;;;;5091924;28;20824;-45
2023/05/25 11:12:22;;;;;;;2.60;1.60;;;19.60;99.90;;;;;;5090551;28;20477;-45
2023/05/25 11:15:13;;;;;;;2.60;1.70;;;19.60;99.90;;;;;;5090257;28;20519;-45
2023/05/25 11:18:01;;;;;;;3.97;1.93;;;19.60;99.90;;;;;;5083608;28;20449;-44
2023/05/25 11:20:29;;;;;;;3.03;2.17;;;19.60;99.90;;;;;;5086594;28;20503;-46
2023/05/25 11:22:58;;;;;;;2.97;1.70;;;19.50;99.90;;;;;;5090510;28;21011;-45
2023/05/25 11:25:39;;;;;;;4.37;2.40;;;19.50;99.90;;;;;;5090975;28;20813;-46
2023/05/25 11:28:10;;;;;;;3.20;2.03;;;19.50;99.90;;;;;;5091637;28;20568;-45
2023/05/25 11:30:39;;;;;;;2.87;2.17;;;19.50;99.90;;;;;;5091543;28;20460;-45
2023/05/25 11:33:07;;;;;;;5.40;2.80;;;19.60;99.90;;;;;;5091282;28;20513;-45
2023/05/25 11:35:36;;;;;;;3.10;2.00;;;19.60;99.90;;;;;;5090681;28;20485;-45
2023/05/25 11:38:07;;;;;;;3.10;2.07;;;19.80;99.90;;;;;;5091498;28;20429;-45
2023/05/25 11:40:34;;;;;;;3.17;2.33;;;19.80;99.90;;;;;;5091334;28;20480;-45
2023/05/25 11:43:02;;;;;;;3.60;2.57;;;19.90;99.90;;;;;;5090500;28;20981;-45
2023/05/25 11:45:32;;;;;;;4.10;2.43;;;19.90;99.90;;;;;;5090890;28;20865;-45
2023/05/25 11:47:59;;;;;;;4.73;3.10;;;20.00;99.90;;;;;;5089390;28;20514;-44
2023/05/25 11:50:27;;;;;;;3.73;2.60;;;20.00;99.90;;;;;;5090931;28;20952;-45
2023/05/25 11:52:54;;;;;;;5.20;2.60;;;20.10;99.90;;;;;;5089946;28;20474;-45
2023/05/25 11:55:21;;;;;;;3.37;2.63;;;20.20;99.90;;;;;;5089848;28;20546;-45
2023/05/25 11:57:55;;;;;;;3.10;2.27;;;20.20;99.90;;;;;;5087825;28;20837;-43
2023/05/25 12:00:27;;;;;;;3.50;2.30;;;20.20;99.90;;;;;;5091134;28;20443;-46
2023/05/25 12:02:56;;;;;;;6.13;2.17;;;20.20;99.90;;;;;;5090407;28;20459;-45
2023/05/25 12:05:23;;;;;;;3.37;1.97;;;20.30;99.90;;;;;;5090601;28;20499;-45
2023/05/25 12:07:50;;;;;;;4.23;2.30;;;20.40;99.90;;;;;;5089670;28;20514;-45
2023/05/25 12:10:17;;;;;;;3.73;2.40;;;20.30;99.90;;;;;;5090056;28;20495;-45
2023/05/25 12:12:45;;;;;;;3.13;2.07;;;20.50;99.90;;;;;;5089357;28;20493;-45
2023/05/25 12:15:14;;;;;;;4.50;3.00;;;20.60;99.90;;;;;;5090622;28;20577;-45
2023/05/25 12:17:42;;;;;;;3.90;2.40;;;20.70;99.90;;;;;;5090284;28;20949;-45
2023/05/25 12:20:12;;;;;;;3.77;2.43;;;20.80;99.90;;;;;;5091032;28;20471;-45
2023/05/25 12:22:39;;;;;;;4.30;2.57;;;20.80;99.90;;;;;;5090799;28;20463;-45
2023/05/25 12:25:09;;;;;;;3.40;2.20;;;20.80;99.90;;;;;;5090800;28;20551;-44
2023/05/25 12:27:36;;;;;;;3.20;2.30;;;20.90;99.90;;;;;;5090746;28;20482;-45
2023/05/25 12:30:05;;;;;;;2.97;2.30;;;20.80;99.90;;;;;;5090895;28;20935;-45
2023/05/25 12:32:32;;;;;;;3.67;2.60;;;20.90;99.90;;;;;;5090224;28;20472;-45
2023/05/25 12:35:03;;;;;;;3.37;2.70;;;20.90;99.90;;;;;;5090797;28;20526;-45
2023/05/25 12:37:31;;;;;;;4.00;2.83;;;20.90;99.90;;;;;;5090280;28;20950;-44
2023/05/25 12:39:59;;;;;;;3.13;2.20;;;20.90;99.90;;;;;;5091087;28;20527;-45
2023/05/25 12:42:28;;;;;;;3.80;2.53;;;20.90;99.90;;;;;;5090032;28;20982;-45
2023/05/25 12:44:59;;;;;;;3.20;2.30;;;20.90;99.90;;;;;;5091334;28;20455;-45
2023/05/25 12:47:29;;;;;;;3.50;2.53;;;20.90;99.90;;;;;;5090408;28;20484;-45
2023/05/25 12:50:11;;;;;;;3.80;2.40;;;21.00;99.90;;;;;;5090203;28;20505;-45
2023/05/25 12:52:41;;;;;;;2.90;1.97;;;21.10;99.90;;;;;;5090342;28;20538;-45
2023/05/25 12:55:28;;;;;;;3.90;2.70;;;21.10;99.90;;;;;;5091068;28;20447;-45